sensor_id;sensor_type;location;lat;lon;timestamp;pressure;altitude;pressure_sealevel;temperature
71630;BMP280;59479;51.902;8.212;2023-09-30T00:00:53;101801.59;;;17.71
71630;BMP280;59479;51.902;8.212;2023-09-30T00:03:18;101804.13;;;17.69
71630;BMP280;59479;51.902;8.212;2023-09-30T00:05:44;101802.44;;;17.68
71630;BMP280;59479;51.902;8.212;2023-09-30T00:08:09;101805.00;;;17.67
71630;BMP280;59479;51.902;8.212;2023-09-30T00:10:34;101799.09;;;17.65
71630;BMP280;59479;51.902;8.212;2023-09-30T00:13:00;101806.75;;;17.62
71630;BMP280;59479;51.902;8.212;2023-09-30T00:15:25;101808.47;;;17.59
71630;BMP280;59479;51.902;8.212;2023-09-30T00:17:51;101807.69;;;17.54
71630;BMP280;59479;51.902;8.212;2023-09-30T00:20:16;101802.66;;;17.48
71630;BMP280;59479;51.902;8.212;2023-09-30T00:22:42;101806.88;;;17.50
71630;BMP280;59479;51.902;8.212;2023-09-30T00:25:08;101815.34;;;17.49
71630;BMP280;59479;51.902;8.212;2023-09-30T00:27:33;101811.13;;;17.48
71630;BMP280;59479;51.902;8.212;2023-09-30T00:29:59;101814.50;;;17.47
71630;BMP280;59479;51.902;8.212;2023-09-30T00:32:24;101823.00;;;17.48
71630;BMP280;59479;51.902;8.212;2023-09-30T00:34:49;101820.50;;;17.42
71630;BMP280;59479;51.902;8.212;2023-09-30T00:37:17;101817.16;;;17.38
71630;BMP280;59479;51.902;8.212;2023-09-30T00:39:42;101818.84;;;17.38
71630;BMP280;59479;51.902;8.212;2023-09-30T00:42:09;101818.00;;;17.37
71630;BMP280;59479;51.902;8.212;2023-09-30T00:44:34;101821.44;;;17.35
71630;BMP280;59479;51.902;8.212;2023-09-30T00:47:00;101826.47;;;17.39
71630;BMP280;59479;51.902;8.212;2023-09-30T00:49:25;101825.63;;;17.36
71630;BMP280;59479;51.902;8.212;2023-09-30T00:51:51;101822.25;;;17.35
71630;BMP280;59479;51.902;8.212;2023-09-30T00:54:17;101827.34;;;17.34
71630;BMP280;59479;51.902;8.212;2023-09-30T00:56:45;101823.16;;;17.30
71630;BMP280;59479;51.902;8.212;2023-09-30T00:59:13;101843.50;;;17.30
71630;BMP280;59479;51.902;8.212;2023-09-30T01:01:41;101835.88;;;17.27
71630;BMP280;59479;51.902;8.212;2023-09-30T01:04:07;101824.91;;;17.22
71630;BMP280;59479;51.902;8.212;2023-09-30T01:06:32;101830.00;;;17.22
71630;BMP280;59479;51.902;8.212;2023-09-30T01:08:58;101838.50;;;17.18
71630;BMP280;59479;51.902;8.212;2023-09-30T01:11:24;101833.44;;;17.12
71630;BMP280;59479;51.902;8.212;2023-09-30T01:13:51;101825.78;;;17.17
71630;BMP280;59479;51.902;8.212;2023-09-30T01:16:16;101824.09;;;17.13
71630;BMP280;59479;51.902;8.212;2023-09-30T01:18:42;101823.25;;;17.15
71630;BMP280;59479;51.902;8.212;2023-09-30T01:21:08;101817.34;;;17.13
71630;BMP280;59479;51.902;8.212;2023-09-30T01:23:35;101799.56;;;17.13
71630;BMP280;59479;51.902;8.212;2023-09-30T01:26:02;101813.09;;;17.15
71630;BMP280;59479;51.902;8.212;2023-09-30T01:28:28;101817.34;;;17.12
71630;BMP280;59479;51.902;8.212;2023-09-30T01:30:54;101817.38;;;17.10
71630;BMP280;59479;51.902;8.212;2023-09-30T01:33:19;101816.53;;;17.10
71630;BMP280;59479;51.902;8.212;2023-09-30T01:35:45;101822.44;;;17.09
71630;BMP280;59479;51.902;8.212;2023-09-30T01:38:10;101825.00;;;17.04
71630;BMP280;59479;51.902;8.212;2023-09-30T01:40:35;101820.81;;;17.02
71630;BMP280;59479;51.902;8.212;2023-09-30T01:43:03;101816.56;;;17.02
71630;BMP280;59479;51.902;8.212;2023-09-30T01:45:28;101826.72;;;17.02
71630;BMP280;59479;51.902;8.212;2023-09-30T01:47:53;101821.66;;;17.02
71630;BMP280;59479;51.902;8.212;2023-09-30T01:50:19;101819.97;;;17.01
71630;BMP280;59479;51.902;8.212;2023-09-30T01:52:45;101824.19;;;17.01
71630;BMP280;59479;51.902;8.212;2023-09-30T01:55:10;101805.59;;;16.99
71630;BMP280;59479;51.902;8.212;2023-09-30T01:57:36;101806.44;;;16.99
71630;BMP280;59479;51.902;8.212;2023-09-30T02:00:01;101822.53;;;17.01
71630;BMP280;59479;51.902;8.212;2023-09-30T02:02:27;101824.22;;;16.99
71630;BMP280;59479;51.902;8.212;2023-09-30T02:04:52;101836.91;;;16.99
71630;BMP280;59479;51.902;8.212;2023-09-30T02:07:18;101840.34;;;16.95
71630;BMP280;59479;51.902;8.212;2023-09-30T02:09:44;101833.56;;;16.94
71630;BMP280;59479;51.902;8.212;2023-09-30T02:12:09;101842.06;;;16.93
71630;BMP280;59479;51.902;8.212;2023-09-30T02:14:34;101853.88;;;16.94
71630;BMP280;59479;51.902;8.212;2023-09-30T02:17:00;101854.75;;;16.93
71630;BMP280;59479;51.902;8.212;2023-09-30T02:19:25;101845.44;;;16.92
71630;BMP280;59479;51.902;8.212;2023-09-30T02:21:52;101845.47;;;16.89
71630;BMP280;59479;51.902;8.212;2023-09-30T02:24:17;101836.16;;;16.90
71630;BMP280;59479;51.902;8.212;2023-09-30T02:26:43;101846.31;;;16.90
71630;BMP280;59479;51.902;8.212;2023-09-30T02:29:08;101849.69;;;16.89
71630;BMP280;59479;51.902;8.212;2023-09-30T02:31:34;101863.25;;;16.88
71630;BMP280;59479;51.902;8.212;2023-09-30T02:33:59;101868.34;;;16.86
71630;BMP280;59479;51.902;8.212;2023-09-30T02:36:24;101863.28;;;16.82
71630;BMP280;59479;51.902;8.212;2023-09-30T02:38:50;101875.16;;;16.79
71630;BMP280;59479;51.902;8.212;2023-09-30T02:41:16;101870.91;;;16.78
71630;BMP280;59479;51.902;8.212;2023-09-30T02:43:41;101867.56;;;16.73
71630;BMP280;59479;51.902;8.212;2023-09-30T02:46:07;101873.50;;;16.76
71630;BMP280;59479;51.902;8.212;2023-09-30T02:48:33;101875.16;;;16.77
71630;BMP280;59479;51.902;8.212;2023-09-30T02:50:59;101861.66;;;16.71
71630;BMP280;59479;51.902;8.212;2023-09-30T02:53:24;101853.22;;;16.66
71630;BMP280;59479;51.902;8.212;2023-09-30T02:55:49;101859.97;;;16.70
71630;BMP280;59479;51.902;8.212;2023-09-30T02:58:21;101849.81;;;16.71
71630;BMP280;59479;51.902;8.212;2023-09-30T03:00:49;101845.59;;;16.70
71630;BMP280;59479;51.902;8.212;2023-09-30T03:03:15;101832.91;;;16.67
71630;BMP280;59479;51.902;8.212;2023-09-30T03:05:41;101843.06;;;16.67
71630;BMP280;59479;51.902;8.212;2023-09-30T03:08:06;101844.75;;;16.70
71630;BMP280;59479;51.902;8.212;2023-09-30T03:10:31;101850.66;;;16.69
71630;BMP280;59479;51.902;8.212;2023-09-30T03:12:57;101847.28;;;16.70
71630;BMP280;59479;51.902;8.212;2023-09-30T03:15:28;101852.38;;;16.68
71630;BMP280;59479;51.902;8.212;2023-09-30T03:17:56;101859.16;;;16.65
71630;BMP280;59479;51.902;8.212;2023-09-30T03:20:21;101860.84;;;16.64
71630;BMP280;59479;51.902;8.212;2023-09-30T03:22:49;101869.31;;;16.62
71630;BMP280;59479;51.902;8.212;2023-09-30T03:25:16;101860.88;;;16.57
71630;BMP280;59479;51.902;8.212;2023-09-30T03:27:43;101869.34;;;16.56
71630;BMP280;59479;51.902;8.212;2023-09-30T03:30:09;101872.75;;;16.55
71630;BMP280;59479;51.902;8.212;2023-09-30T03:32:36;101865.13;;;16.55
71630;BMP280;59479;51.902;8.212;2023-09-30T03:35:07;101872.75;;;16.58
71630;BMP280;59479;51.902;8.212;2023-09-30T03:37:36;101865.97;;;16.57
71630;BMP280;59479;51.902;8.212;2023-09-30T03:40:02;101861.72;;;16.54
71630;BMP280;59479;51.902;8.212;2023-09-30T03:42:37;101853.28;;;16.52
71630;BMP280;59479;51.902;8.212;2023-09-30T03:45:04;101848.22;;;16.51
71630;BMP280;59479;51.902;8.212;2023-09-30T03:47:31;101850.75;;;16.51
71630;BMP280;59479;51.902;8.212;2023-09-30T03:49:56;101850.75;;;16.49
71630;BMP280;59479;51.902;8.212;2023-09-30T03:52:24;101840.63;;;16.48
71630;BMP280;59479;51.902;8.212;2023-09-30T03:54:50;101849.91;;;16.49
71630;BMP280;59479;51.902;8.212;2023-09-30T03:57:16;101857.53;;;16.49
71630;BMP280;59479;51.902;8.212;2023-09-30T03:59:41;101858.41;;;16.46
71630;BMP280;59479;51.902;8.212;2023-09-30T04:02:07;101860.06;;;16.47
71630;BMP280;59479;51.902;8.212;2023-09-30T04:04:33;101857.53;;;16.47
71630;BMP280;59479;51.902;8.212;2023-09-30T04:06:59;101859.25;;;16.44
71630;BMP280;59479;51.902;8.212;2023-09-30T04:09:24;101856.72;;;16.44
71630;BMP280;59479;51.902;8.212;2023-09-30T04:11:50;101850.81;;;16.39
71630;BMP280;59479;51.902;8.212;2023-09-30T04:14:16;101861.84;;;16.37
71630;BMP280;59479;51.902;8.212;2023-09-30T04:16:42;101855.91;;;16.36
71630;BMP280;59479;51.902;8.212;2023-09-30T04:19:08;101855.91;;;16.36
71630;BMP280;59479;51.902;8.212;2023-09-30T04:21:35;101856.75;;;16.37
71630;BMP280;59479;51.902;8.212;2023-09-30T04:24:00;101861.84;;;16.38
71630;BMP280;59479;51.902;8.212;2023-09-30T04:26:27;101857.59;;;16.37
71630;BMP280;59479;51.902;8.212;2023-09-30T04:28:52;101863.53;;;16.35
71630;BMP280;59479;51.902;8.212;2023-09-30T04:31:19;101866.09;;;16.32
71630;BMP280;59479;51.902;8.212;2023-09-30T04:33:46;101857.63;;;16.30
71630;BMP280;59479;51.902;8.212;2023-09-30T04:36:12;101859.31;;;16.28
71630;BMP280;59479;51.902;8.212;2023-09-30T04:38:38;101862.72;;;16.27
71630;BMP280;59479;51.902;8.212;2023-09-30T04:41:04;101860.19;;;16.27
71630;BMP280;59479;51.902;8.212;2023-09-30T04:43:33;101854.25;;;16.29
71630;BMP280;59479;51.902;8.212;2023-09-30T04:45:58;101866.94;;;16.29
71630;BMP280;59479;51.902;8.212;2023-09-30T04:48:23;101881.31;;;16.30
71630;BMP280;59479;51.902;8.212;2023-09-30T04:50:49;101883.84;;;16.30
71630;BMP280;59479;51.902;8.212;2023-09-30T04:53:15;101886.38;;;16.30
71630;BMP280;59479;51.902;8.212;2023-09-30T04:55:43;101886.41;;;16.26
71630;BMP280;59479;51.902;8.212;2023-09-30T04:58:08;101869.50;;;16.22
71630;BMP280;59479;51.902;8.212;2023-09-30T05:00:34;101868.63;;;16.18
71630;BMP280;59479;51.902;8.212;2023-09-30T05:03:00;101887.25;;;16.20
71630;BMP280;59479;51.902;8.212;2023-09-30T05:05:26;101881.34;;;16.20
71630;BMP280;59479;51.902;8.212;2023-09-30T05:07:51;101883.03;;;16.16
71630;BMP280;59479;51.902;8.212;2023-09-30T05:10:16;101874.56;;;16.14
71630;BMP280;59479;51.902;8.212;2023-09-30T05:12:43;101889.81;;;16.11
71630;BMP280;59479;51.902;8.212;2023-09-30T05:15:12;101890.63;;;16.13
71630;BMP280;59479;51.902;8.212;2023-09-30T05:17:38;101888.09;;;16.10
71630;BMP280;59479;51.902;8.212;2023-09-30T05:20:04;101894.88;;;16.05
71630;BMP280;59479;51.902;8.212;2023-09-30T05:22:34;101901.66;;;16.05
71630;BMP280;59479;51.902;8.212;2023-09-30T05:24:59;101891.50;;;15.99
71630;BMP280;59479;51.902;8.212;2023-09-30T05:27:25;101895.75;;;15.96
71630;BMP280;59479;51.902;8.212;2023-09-30T05:29:52;101899.97;;;15.94
71630;BMP280;59479;51.902;8.212;2023-09-30T05:32:18;101892.38;;;15.94
71630;BMP280;59479;51.902;8.212;2023-09-30T05:34:43;101898.28;;;15.91
71630;BMP280;59479;51.902;8.212;2023-09-30T05:37:09;101889.00;;;15.90
71630;BMP280;59479;51.902;8.212;2023-09-30T05:39:34;101899.16;;;15.92
71630;BMP280;59479;51.902;8.212;2023-09-30T05:42:00;101893.25;;;15.88
71630;BMP280;59479;51.902;8.212;2023-09-30T05:44:25;101895.78;;;15.87
71630;BMP280;59479;51.902;8.212;2023-09-30T05:46:54;101884.78;;;15.85
71630;BMP280;59479;51.902;8.212;2023-09-30T05:49:20;101892.41;;;15.85
71630;BMP280;59479;51.902;8.212;2023-09-30T05:51:45;101900.84;;;15.84
71630;BMP280;59479;51.902;8.212;2023-09-30T05:54:12;101911.81;;;15.84
71630;BMP280;59479;51.902;8.212;2023-09-30T05:56:38;101914.34;;;15.86
71630;BMP280;59479;51.902;8.212;2023-09-30T05:59:06;101921.97;;;15.86
71630;BMP280;59479;51.902;8.212;2023-09-30T06:01:32;101928.75;;;15.87
71630;BMP280;59479;51.902;8.212;2023-09-30T06:03:58;101926.19;;;15.87
71630;BMP280;59479;51.902;8.212;2023-09-30T06:06:23;101933.81;;;15.84
71630;BMP280;59479;51.902;8.212;2023-09-30T06:08:49;101925.38;;;15.83
71630;BMP280;59479;51.902;8.212;2023-09-30T06:11:19;101927.91;;;15.82
71630;BMP280;59479;51.902;8.212;2023-09-30T06:13:45;101939.72;;;15.83
71630;BMP280;59479;51.902;8.212;2023-09-30T06:16:12;101930.44;;;15.82
71630;BMP280;59479;51.902;8.212;2023-09-30T06:18:37;101945.66;;;15.82
71630;BMP280;59479;51.902;8.212;2023-09-30T06:21:03;101939.75;;;15.81
71630;BMP280;59479;51.902;8.212;2023-09-30T06:23:29;101940.56;;;15.82
71630;BMP280;59479;51.902;8.212;2023-09-30T06:25:55;101949.00;;;15.84
71630;BMP280;59479;51.902;8.212;2023-09-30T06:28:21;101938.88;;;15.81
71630;BMP280;59479;51.902;8.212;2023-09-30T06:30:54;101940.56;;;15.82
71630;BMP280;59479;51.902;8.212;2023-09-30T06:33:20;101941.41;;;15.81
71630;BMP280;59479;51.902;8.212;2023-09-30T06:35:46;101946.47;;;15.79
71630;BMP280;59479;51.902;8.212;2023-09-30T06:38:20;101961.69;;;15.81
71630;BMP280;59479;51.902;8.212;2023-09-30T06:40:46;101952.41;;;15.77
71630;BMP280;59479;51.902;8.212;2023-09-30T06:43:13;101949.00;;;15.79
71630;BMP280;59479;51.902;8.212;2023-09-30T06:45:43;101949.00;;;15.81
71630;BMP280;59479;51.902;8.212;2023-09-30T06:48:10;101945.63;;;15.73
71630;BMP280;59479;51.902;8.212;2023-09-30T06:50:48;101945.63;;;15.79
71630;BMP280;59479;51.902;8.212;2023-09-30T06:53:18;101957.47;;;15.80
71630;BMP280;59479;51.902;8.212;2023-09-30T06:55:44;101955.78;;;15.82
71630;BMP280;59479;51.902;8.212;2023-09-30T06:58:10;101965.91;;;15.86
71630;BMP280;59479;51.902;8.212;2023-09-30T07:00:38;101960.00;;;15.84
71630;BMP280;59479;51.902;8.212;2023-09-30T07:03:04;101960.84;;;15.83
71630;BMP280;59479;51.902;8.212;2023-09-30T07:05:30;101960.84;;;15.88
71630;BMP280;59479;51.902;8.212;2023-09-30T07:07:55;101959.16;;;15.90
71630;BMP280;59479;51.902;8.212;2023-09-30T07:10:20;101959.13;;;15.93
71630;BMP280;59479;51.902;8.212;2023-09-30T07:12:46;101967.63;;;15.92
71630;BMP280;59479;51.902;8.212;2023-09-30T07:15:12;101971.81;;;15.94
71630;BMP280;59479;51.902;8.212;2023-09-30T07:17:39;101977.72;;;15.97
71630;BMP280;59479;51.902;8.212;2023-09-30T07:20:05;101993.78;;;16.01
71630;BMP280;59479;51.902;8.212;2023-09-30T07:22:31;101996.31;;;16.02
71630;BMP280;59479;51.902;8.212;2023-09-30T07:24:57;101984.50;;;16.03
71630;BMP280;59479;51.902;8.212;2023-09-30T07:27:23;101999.72;;;16.07
71630;BMP280;59479;51.902;8.212;2023-09-30T07:29:49;101987.03;;;16.04
71630;BMP280;59479;51.902;8.212;2023-09-30T07:32:14;101983.66;;;15.99
71630;BMP280;59479;51.902;8.212;2023-09-30T07:34:40;101981.97;;;16.03
71630;BMP280;59479;51.902;8.212;2023-09-30T07:37:05;101987.03;;;16.04
71630;BMP280;59479;51.902;8.212;2023-09-30T07:39:30;101982.81;;;16.05
71630;BMP280;59479;51.902;8.212;2023-09-30T07:41:56;101979.41;;;16.07
71630;BMP280;59479;51.902;8.212;2023-09-30T07:44:21;101983.66;;;16.11
71630;BMP280;59479;51.902;8.212;2023-09-30T07:46:47;101992.94;;;16.09
71630;BMP280;59479;51.902;8.212;2023-09-30T07:49:12;101999.72;;;16.15
71630;BMP280;59479;51.902;8.212;2023-09-30T07:51:37;102003.09;;;16.09
71630;BMP280;59479;51.902;8.212;2023-09-30T07:54:05;102013.22;;;16.15
71630;BMP280;59479;51.902;8.212;2023-09-30T07:56:30;102014.94;;;16.15
71630;BMP280;59479;51.902;8.212;2023-09-30T07:58:55;102006.47;;;16.08
71630;BMP280;59479;51.902;8.212;2023-09-30T08:01:21;102005.63;;;16.14
71630;BMP280;59479;51.902;8.212;2023-09-30T08:03:46;102003.09;;;16.12
71630;BMP280;59479;51.902;8.212;2023-09-30T08:06:12;102014.94;;;16.10
71630;BMP280;59479;51.902;8.212;2023-09-30T08:08:37;102014.94;;;16.10
71630;BMP280;59479;51.902;8.212;2023-09-30T08:11:03;102021.72;;;16.20
71630;BMP280;59479;51.902;8.212;2023-09-30T08:13:29;102020.03;;;16.27
71630;BMP280;59479;51.902;8.212;2023-09-30T08:15:55;102016.63;;;16.38
71630;BMP280;59479;51.902;8.212;2023-09-30T08:18:21;102022.53;;;16.37
71630;BMP280;59479;51.902;8.212;2023-09-30T08:20:46;102031.84;;;16.50
71630;BMP280;59479;51.902;8.212;2023-09-30T08:23:12;102029.28;;;16.51
71630;BMP280;59479;51.902;8.212;2023-09-30T08:25:38;102016.59;;;16.53
71630;BMP280;59479;51.902;8.212;2023-09-30T08:28:04;102030.09;;;16.61
71630;BMP280;59479;51.902;8.212;2023-09-30T08:30:33;102026.72;;;16.59
71630;BMP280;59479;51.902;8.212;2023-09-30T08:32:58;102015.72;;;16.60
71630;BMP280;59479;51.902;8.212;2023-09-30T08:35:24;102025.84;;;16.69
71630;BMP280;59479;51.902;8.212;2023-09-30T08:37:49;102024.16;;;16.71
71630;BMP280;59479;51.902;8.212;2023-09-30T08:40:19;102028.38;;;16.75
71630;BMP280;59479;51.902;8.212;2023-09-30T08:42:47;102027.50;;;16.82
71630;BMP280;59479;51.902;8.212;2023-09-30T08:45:14;102030.88;;;16.86
71630;BMP280;59479;51.902;8.212;2023-09-30T08:47:42;102030.88;;;16.86
71630;BMP280;59479;51.902;8.212;2023-09-30T08:50:07;102040.22;;;16.82
71630;BMP280;59479;51.902;8.212;2023-09-30T08:52:40;102035.91;;;16.91
71630;BMP280;59479;51.902;8.212;2023-09-30T08:55:09;102036.75;;;16.94
71630;BMP280;59479;51.902;8.212;2023-09-30T08:57:40;102035.03;;;17.04
71630;BMP280;59479;51.902;8.212;2023-09-30T09:00:07;102041.00;;;17.00
71630;BMP280;59479;51.902;8.212;2023-09-30T09:02:36;102033.34;;;17.03
71630;BMP280;59479;51.902;8.212;2023-09-30T09:05:02;102033.38;;;16.95
71630;BMP280;59479;51.902;8.212;2023-09-30T09:07:28;102041.81;;;16.97
71630;BMP280;59479;51.902;8.212;2023-09-30T09:10:04;102038.44;;;17.03
71630;BMP280;59479;51.902;8.212;2023-09-30T09:12:31;102044.34;;;17.03
71630;BMP280;59479;51.902;8.212;2023-09-30T09:14:57;102031.59;;;17.12
71630;BMP280;59479;51.902;8.212;2023-09-30T09:17:39;102034.09;;;17.27
71630;BMP280;59479;51.902;8.212;2023-09-30T09:20:06;102043.44;;;17.21
71630;BMP280;59479;51.902;8.212;2023-09-30T09:22:41;102029.91;;;17.22
71630;BMP280;59479;51.902;8.212;2023-09-30T09:25:08;102024.75;;;17.35
71630;BMP280;59479;51.902;8.212;2023-09-30T09:27:34;102026.41;;;17.42
71630;BMP280;59479;51.902;8.212;2023-09-30T09:30:18;102027.91;;;17.69
71630;BMP280;59479;51.902;8.212;2023-09-30T09:32:54;102033.84;;;17.67
71630;BMP280;59479;51.902;8.212;2023-09-30T09:35:21;102037.22;;;17.73
71630;BMP280;59479;51.902;8.212;2023-09-30T09:38:02;102019.38;;;17.76
71630;BMP280;59479;51.902;8.212;2023-09-30T09:40:35;102022.75;;;17.81
71630;BMP280;59479;51.902;8.212;2023-09-30T09:43:02;102027.03;;;17.76
71630;BMP280;59479;51.902;8.212;2023-09-30T09:45:32;102020.09;;;17.92
71630;BMP280;59479;51.902;8.212;2023-09-30T09:47:58;102015.00;;;17.95
71630;BMP280;59479;51.902;8.212;2023-09-30T09:50:24;102015.00;;;17.96
71630;BMP280;59479;51.902;8.212;2023-09-30T09:52:54;102004.72;;;18.11
71630;BMP280;59479;51.902;8.212;2023-09-30T09:55:23;102004.66;;;18.15
71630;BMP280;59479;51.902;8.212;2023-09-30T09:57:50;102008.06;;;18.16
71630;BMP280;59479;51.902;8.212;2023-09-30T10:00:17;102000.38;;;18.20
71630;BMP280;59479;51.902;8.212;2023-09-30T10:02:44;102007.88;;;18.31
71630;BMP280;59479;51.902;8.212;2023-09-30T10:05:11;102012.91;;;18.41
71630;BMP280;59479;51.902;8.212;2023-09-30T10:07:39;102013.16;;;18.16
71630;BMP280;59479;51.902;8.212;2023-09-30T10:10:10;102015.72;;;18.08
71630;BMP280;59479;51.902;8.212;2023-09-30T10:12:37;101996.88;;;18.30
71630;BMP280;59479;51.902;8.212;2023-09-30T10:18:07;102018.88;;;18.36
71630;BMP280;59479;51.902;8.212;2023-09-30T10:20:35;102031.56;;;18.42
71630;BMP280;59479;51.902;8.212;2023-09-30T10:25:42;102039.38;;;18.22
71630;BMP280;59479;51.902;8.212;2023-09-30T10:31:18;102034.25;;;18.25
71630;BMP280;59479;51.902;8.212;2023-09-30T10:38:57;102020.47;;;18.47
71630;BMP280;59479;51.902;8.212;2023-09-30T10:46:58;102008.38;;;18.65
71630;BMP280;59479;51.902;8.212;2023-09-30T10:51:56;102004.03;;;18.73
71630;BMP280;59479;51.902;8.212;2023-09-30T10:54:23;102001.44;;;18.79
71630;BMP280;59479;51.902;8.212;2023-09-30T10:56:49;102001.28;;;18.91
71630;BMP280;59479;51.902;8.212;2023-09-30T10:59:19;102006.38;;;18.91
71630;BMP280;59479;51.902;8.212;2023-09-30T11:01:44;102018.19;;;18.99
71630;BMP280;59479;51.902;8.212;2023-09-30T11:04:09;102031.00;;;18.91
71630;BMP280;59479;51.902;8.212;2023-09-30T11:06:39;102020.72;;;19.01
71630;BMP280;59479;51.902;8.212;2023-09-30T11:09:05;102021.69;;;18.88
71630;BMP280;59479;51.902;8.212;2023-09-30T11:11:45;102025.78;;;19.02
71630;BMP280;59479;51.902;8.212;2023-09-30T11:16:50;102040.28;;;18.96
71630;BMP280;59479;51.902;8.212;2023-09-30T11:19:15;102041.97;;;18.97
71630;BMP280;59479;51.902;8.212;2023-09-30T11:21:42;102040.38;;;18.86
71630;BMP280;59479;51.902;8.212;2023-09-30T11:24:11;102030.94;;;18.95
71630;BMP280;59479;51.902;8.212;2023-09-30T11:26:37;102024.19;;;18.93
71630;BMP280;59479;51.902;8.212;2023-09-30T11:29:15;102025.09;;;18.87
71630;BMP280;59479;51.902;8.212;2023-09-30T11:31:42;102030.19;;;18.87
71630;BMP280;59479;51.902;8.212;2023-09-30T11:34:09;102028.41;;;18.95
71630;BMP280;59479;51.902;8.212;2023-09-30T11:36:47;102023.28;;;19.01
71630;BMP280;59479;51.902;8.212;2023-09-30T11:39:26;102018.91;;;19.09
71630;BMP280;59479;51.902;8.212;2023-09-30T11:41:54;102011.22;;;19.12
71630;BMP280;59479;51.902;8.212;2023-09-30T11:44:22;102008.44;;;19.28
71630;BMP280;59479;51.902;8.212;2023-09-30T11:46:55;101998.22;;;19.31
71630;BMP280;59479;51.902;8.212;2023-09-30T11:49:28;102003.56;;;19.12
71630;BMP280;59479;51.902;8.212;2023-09-30T11:51:55;101999.91;;;19.31
71630;BMP280;59479;51.902;8.212;2023-09-30T11:54:21;101992.03;;;19.45
71630;BMP280;59479;51.902;8.212;2023-09-30T11:56:48;101991.16;;;19.48
71630;BMP280;59479;51.902;8.212;2023-09-30T11:59:13;101992.94;;;19.43
71630;BMP280;59479;51.902;8.212;2023-09-30T12:01:39;101991.78;;;19.62
71630;BMP280;59479;51.902;8.212;2023-09-30T12:04:05;101989.22;;;19.62
71630;BMP280;59479;51.902;8.212;2023-09-30T12:06:30;101978.88;;;19.71
71630;BMP280;59479;51.902;8.212;2023-09-30T12:08:55;101969.44;;;19.76
71630;BMP280;59479;51.902;8.212;2023-09-30T12:11:21;101991.91;;;19.54
71630;BMP280;59479;51.902;8.212;2023-09-30T12:13:49;101980.75;;;19.61
71630;BMP280;59479;51.902;8.212;2023-09-30T12:16:15;101984.97;;;19.62
71630;BMP280;59479;51.902;8.212;2023-09-30T12:18:41;101976.31;;;19.71
71630;BMP280;59479;51.902;8.212;2023-09-30T12:21:10;101973.81;;;19.69
71630;BMP280;59479;51.902;8.212;2023-09-30T12:23:37;101978.28;;;19.55
71630;BMP280;59479;51.902;8.212;2023-09-30T12:26:03;101957.63;;;19.70
71630;BMP280;59479;51.902;8.212;2023-09-30T12:28:32;101961.69;;;19.81
71630;BMP280;59479;51.902;8.212;2023-09-30T12:30:58;101960.22;;;19.69
71630;BMP280;59479;51.902;8.212;2023-09-30T12:33:24;101966.31;;;19.60
71630;BMP280;59479;51.902;8.212;2023-09-30T12:35:49;101966.97;;;19.71
71630;BMP280;59479;51.902;8.212;2023-09-30T12:40:26;101957.91;;;19.54
71630;BMP280;59479;51.902;8.212;2023-09-30T12:42:51;101955.09;;;19.69
71630;BMP280;59479;51.902;8.212;2023-09-30T12:45:16;101966.00;;;19.78
71630;BMP280;59479;51.902;8.212;2023-09-30T12:47:43;101955.06;;;19.72
71630;BMP280;59479;51.902;8.212;2023-09-30T12:50:09;101953.34;;;19.72
71630;BMP280;59479;51.902;8.212;2023-09-30T12:52:35;101954.19;;;19.74
71630;BMP280;59479;51.902;8.212;2023-09-30T12:55:01;101945.41;;;19.90
71630;BMP280;59479;51.902;8.212;2023-09-30T12:57:27;101940.94;;;20.02
71630;BMP280;59479;51.902;8.212;2023-09-30T12:59:52;101944.91;;;19.69
71630;BMP280;59479;51.902;8.212;2023-09-30T13:02:19;101944.84;;;19.73
71630;BMP280;59479;51.902;8.212;2023-09-30T13:04:44;101937.00;;;19.82
71630;BMP280;59479;51.902;8.212;2023-09-30T13:07:10;101927.63;;;19.85
71630;BMP280;59479;51.902;8.212;2023-09-30T13:09:38;101929.47;;;19.78
71630;BMP280;59479;51.902;8.212;2023-09-30T13:12:03;101932.88;;;19.77
71630;BMP280;59479;51.902;8.212;2023-09-30T13:14:29;101939.78;;;19.70
71630;BMP280;59479;51.902;8.212;2023-09-30T13:16:54;101925.06;;;19.87
71630;BMP280;59479;51.902;8.212;2023-09-30T13:19:19;101938.81;;;19.77
71630;BMP280;59479;51.902;8.212;2023-09-30T13:21:47;101925.09;;;19.84
71630;BMP280;59479;51.902;8.212;2023-09-30T13:24:12;101929.53;;;19.72
71630;BMP280;59479;51.902;8.212;2023-09-30T13:26:38;101931.56;;;19.52
71630;BMP280;59479;51.902;8.212;2023-09-30T13:29:03;101921.88;;;19.73
71630;BMP280;59479;51.902;8.212;2023-09-30T13:31:30;101920.13;;;19.75
71630;BMP280;59479;51.902;8.212;2023-09-30T13:33:56;101922.03;;;19.64
71630;BMP280;59479;51.902;8.212;2023-09-30T13:36:21;101915.00;;;19.77
71630;BMP280;59479;51.902;8.212;2023-09-30T13:38:46;101916.53;;;19.89
71630;BMP280;59479;51.902;8.212;2023-09-30T13:41:12;101919.69;;;20.02
71630;BMP280;59479;51.902;8.212;2023-09-30T13:43:37;101914.69;;;19.96
71630;BMP280;59479;51.902;8.212;2023-09-30T13:46:04;101919.13;;;19.86
71630;BMP280;59479;51.902;8.212;2023-09-30T13:48:32;101926.03;;;19.78
71630;BMP280;59479;51.902;8.212;2023-09-30T13:51:08;101929.22;;;19.92
71630;BMP280;59479;51.902;8.212;2023-09-30T13:53:34;101922.63;;;19.79
71630;BMP280;59479;51.902;8.212;2023-09-30T13:55:59;101920.75;;;19.89
71630;BMP280;59479;51.902;8.212;2023-09-30T13:58:25;101918.28;;;19.83
71630;BMP280;59479;51.902;8.212;2023-09-30T14:00:50;101913.72;;;20.03
71630;BMP280;59479;51.902;8.212;2023-09-30T14:03:19;101921.03;;;19.73
71630;BMP280;59479;51.902;8.212;2023-09-30T14:05:47;101905.59;;;19.78
71630;BMP280;59479;51.902;8.212;2023-09-30T14:08:13;101902.16;;;19.82
71630;BMP280;59479;51.902;8.212;2023-09-30T14:10:38;101891.09;;;19.80
71630;BMP280;59479;51.902;8.212;2023-09-30T14:13:04;101889.41;;;19.82
71630;BMP280;59479;51.902;8.212;2023-09-30T14:15:29;101885.72;;;19.98
71630;BMP280;59479;51.902;8.212;2023-09-30T14:17:56;101876.19;;;20.08
71630;BMP280;59479;51.902;8.212;2023-09-30T14:20:23;101869.34;;;20.08